sensor_id;sensor_type;location;lat;lon;timestamp;P1;durP1;ratioP1;P2;durP2;ratioP2
72649;SDS011;61467;50.674;4.618;2024-01-06T00:00:08;7.90;;;2.17;;
72649;SDS011;61467;50.674;4.618;2024-01-06T00:02:36;6.57;;;2.45;;
72649;SDS011;61467;50.674;4.618;2024-01-06T00:05:03;7.45;;;2.72;;
72649;SDS011;61467;50.674;4.618;2024-01-06T00:07:30;8.17;;;2.57;;
72649;SDS011;61467;50.674;4.618;2024-01-06T00:09:57;7.45;;;2.17;;
72649;SDS011;61467;50.674;4.618;2024-01-06T00:12:24;8.65;;;2.53;;
72649;SDS011;61467;50.674;4.618;2024-01-06T00:14:50;7.13;;;2.10;;
72649;SDS011;61467;50.674;4.618;2024-01-06T00:17:19;9.63;;;2.20;;
72649;SDS011;61467;50.674;4.618;2024-01-06T00:19:45;8.20;;;2.20;;
72649;SDS011;61467;50.674;4.618;2024-01-06T00:22:16;9.50;;;2.50;;
72649;SDS011;61467;50.674;4.618;2024-01-06T00:24:42;7.45;;;2.28;;
72649;SDS011;61467;50.674;4.618;2024-01-06T00:27:09;7.45;;;2.70;;
72649;SDS011;61467;50.674;4.618;2024-01-06T00:29:36;7.15;;;2.50;;
72649;SDS011;61467;50.674;4.618;2024-01-06T00:32:03;9.70;;;2.53;;
72649;SDS011;61467;50.674;4.618;2024-01-06T00:34:32;10.93;;;3.10;;
72649;SDS011;61467;50.674;4.618;2024-01-06T00:36:59;7.03;;;2.53;;
72649;SDS011;61467;50.674;4.618;2024-01-06T00:39:26;6.85;;;2.30;;
72649;SDS011;61467;50.674;4.618;2024-01-06T00:41:53;8.27;;;2.05;;
72649;SDS011;61467;50.674;4.618;2024-01-06T00:44:19;8.43;;;2.40;;
72649;SDS011;61467;50.674;4.618;2024-01-06T00:46:46;8.88;;;2.30;;
72649;SDS011;61467;50.674;4.618;2024-01-06T00:49:13;9.80;;;3.00;;
72649;SDS011;61467;50.674;4.618;2024-01-06T00:51:41;6.30;;;2.60;;
72649;SDS011;61467;50.674;4.618;2024-01-06T00:54:08;6.57;;;2.00;;
72649;SDS011;61467;50.674;4.618;2024-01-06T00:56:35;5.23;;;1.70;;
72649;SDS011;61467;50.674;4.618;2024-01-06T00:59:01;6.57;;;2.00;;
72649;SDS011;61467;50.674;4.618;2024-01-06T01:01:28;7.03;;;2.40;;
72649;SDS011;61467;50.674;4.618;2024-01-06T01:03:55;8.38;;;1.83;;
72649;SDS011;61467;50.674;4.618;2024-01-06T01:06:22;7.88;;;2.13;;
72649;SDS011;61467;50.674;4.618;2024-01-06T01:08:50;10.27;;;1.97;;
72649;SDS011;61467;50.674;4.618;2024-01-06T01:11:17;7.03;;;2.10;;
72649;SDS011;61467;50.674;4.618;2024-01-06T01:13:43;6.38;;;2.35;;
72649;SDS011;61467;50.674;4.618;2024-01-06T01:16:10;7.55;;;2.28;;
72649;SDS011;61467;50.674;4.618;2024-01-06T01:18:37;5.50;;;1.80;;
72649;SDS011;61467;50.674;4.618;2024-01-06T01:21:04;6.63;;;1.80;;
72649;SDS011;61467;50.674;4.618;2024-01-06T01:23:31;6.68;;;2.28;;
72649;SDS011;61467;50.674;4.618;2024-01-06T01:25:59;6.35;;;2.25;;
72649;SDS011;61467;50.674;4.618;2024-01-06T01:28:26;6.25;;;2.20;;
72649;SDS011;61467;50.674;4.618;2024-01-06T01:30:53;5.70;;;1.90;;
72649;SDS011;61467;50.674;4.618;2024-01-06T01:33:19;5.10;;;1.60;;
72649;SDS011;61467;50.674;4.618;2024-01-06T01:35:46;6.95;;;1.83;;
72649;SDS011;61467;50.674;4.618;2024-01-06T01:38:13;5.60;;;1.90;;
72649;SDS011;61467;50.674;4.618;2024-01-06T01:40:40;6.53;;;2.10;;
72649;SDS011;61467;50.674;4.618;2024-01-06T01:43:16;6.38;;;2.10;;
72649;SDS011;61467;50.674;4.618;2024-01-06T01:45:43;8.90;;;2.10;;
72649;SDS011;61467;50.674;4.618;2024-01-06T01:48:11;6.90;;;2.25;;
72649;SDS011;61467;50.674;4.618;2024-01-06T01:50:38;6.68;;;2.55;;
72649;SDS011;61467;50.674;4.618;2024-01-06T01:53:05;7.15;;;2.60;;
72649;SDS011;61467;50.674;4.618;2024-01-06T01:55:32;7.47;;;2.30;;
72649;SDS011;61467;50.674;4.618;2024-01-06T01:57:59;6.80;;;2.37;;
72649;SDS011;61467;50.674;4.618;2024-01-06T02:00:27;7.50;;;1.92;;
72649;SDS011;61467;50.674;4.618;2024-01-06T02:02:54;6.95;;;2.63;;
72649;SDS011;61467;50.674;4.618;2024-01-06T02:05:21;9.18;;;2.42;;
72649;SDS011;61467;50.674;4.618;2024-01-06T02:07:48;6.75;;;2.33;;
72649;SDS011;61467;50.674;4.618;2024-01-06T02:10:16;7.53;;;2.27;;
72649;SDS011;61467;50.674;4.618;2024-01-06T02:12:43;6.38;;;2.15;;
72649;SDS011;61467;50.674;4.618;2024-01-06T02:15:09;9.32;;;3.20;;
72649;SDS011;61467;50.674;4.618;2024-01-06T02:17:38;12.15;;;2.75;;
72649;SDS011;61467;50.674;4.618;2024-01-06T02:20:05;12.30;;;2.70;;
72649;SDS011;61467;50.674;4.618;2024-01-06T02:22:35;10.50;;;2.40;;
72649;SDS011;61467;50.674;4.618;2024-01-06T02:25:02;7.03;;;2.47;;
72649;SDS011;61467;50.674;4.618;2024-01-06T02:27:32;9.00;;;2.63;;
72649;SDS011;61467;50.674;4.618;2024-01-06T02:29:59;7.15;;;2.15;;
72649;SDS011;61467;50.674;4.618;2024-01-06T02:32:26;6.03;;;2.33;;
72649;SDS011;61467;50.674;4.618;2024-01-06T02:34:53;6.67;;;2.23;;
72649;SDS011;61467;50.674;4.618;2024-01-06T02:37:20;7.68;;;2.53;;
72649;SDS011;61467;50.674;4.618;2024-01-06T02:39:48;9.05;;;2.63;;
72649;SDS011;61467;50.674;4.618;2024-01-06T02:42:15;7.72;;;1.90;;
72649;SDS011;61467;50.674;4.618;2024-01-06T02:44:42;7.60;;;1.65;;
72649;SDS011;61467;50.674;4.618;2024-01-06T02:47:09;5.30;;;1.70;;
72649;SDS011;61467;50.674;4.618;2024-01-06T02:49:36;5.35;;;1.67;;
72649;SDS011;61467;50.674;4.618;2024-01-06T02:52:03;12.95;;;2.08;;
72649;SDS011;61467;50.674;4.618;2024-01-06T02:54:30;5.38;;;1.75;;
72649;SDS011;61467;50.674;4.618;2024-01-06T02:56:58;8.75;;;2.50;;
72649;SDS011;61467;50.674;4.618;2024-01-06T02:59:25;6.97;;;1.77;;
72649;SDS011;61467;50.674;4.618;2024-01-06T03:01:52;5.40;;;1.52;;
72649;SDS011;61467;50.674;4.618;2024-01-06T03:04:19;6.95;;;1.95;;
72649;SDS011;61467;50.674;4.618;2024-01-06T03:06:46;5.40;;;1.45;;
72649;SDS011;61467;50.674;4.618;2024-01-06T03:09:17;5.47;;;1.60;;
72649;SDS011;61467;50.674;4.618;2024-01-06T03:11:45;7.27;;;1.50;;
72649;SDS011;61467;50.674;4.618;2024-01-06T03:14:15;5.25;;;1.35;;
72649;SDS011;61467;50.674;4.618;2024-01-06T03:16:42;5.32;;;1.33;;
72649;SDS011;61467;50.674;4.618;2024-01-06T03:19:09;5.13;;;1.45;;
72649;SDS011;61467;50.674;4.618;2024-01-06T03:21:36;4.97;;;1.48;;
72649;SDS011;61467;50.674;4.618;2024-01-06T03:24:04;5.93;;;1.27;;
72649;SDS011;61467;50.674;4.618;2024-01-06T03:26:34;4.72;;;1.35;;
72649;SDS011;61467;50.674;4.618;2024-01-06T03:29:00;4.63;;;1.40;;
72649;SDS011;61467;50.674;4.618;2024-01-06T03:31:29;4.70;;;1.40;;
72649;SDS011;61467;50.674;4.618;2024-01-06T03:33:56;5.80;;;1.58;;
72649;SDS011;61467;50.674;4.618;2024-01-06T03:36:23;4.20;;;1.30;;
72649;SDS011;61467;50.674;4.618;2024-01-06T03:38:50;6.38;;;1.40;;
72649;SDS011;61467;50.674;4.618;2024-01-06T03:41:17;4.25;;;1.35;;
72649;SDS011;61467;50.674;4.618;2024-01-06T03:43:43;4.82;;;1.27;;
72649;SDS011;61467;50.674;4.618;2024-01-06T03:46:10;5.00;;;1.60;;
72649;SDS011;61467;50.674;4.618;2024-01-06T03:48:39;5.57;;;1.20;;
72649;SDS011;61467;50.674;4.618;2024-01-06T03:51:06;4.30;;;1.20;;
72649;SDS011;61467;50.674;4.618;2024-01-06T03:53:33;6.15;;;1.40;;
72649;SDS011;61467;50.674;4.618;2024-01-06T03:55:59;4.63;;;1.35;;
72649;SDS011;61467;50.674;4.618;2024-01-06T03:58:26;6.30;;;1.67;;
72649;SDS011;61467;50.674;4.618;2024-01-06T04:00:53;5.60;;;1.40;;
72649;SDS011;61467;50.674;4.618;2024-01-06T04:03:20;5.57;;;1.60;;
72649;SDS011;61467;50.674;4.618;2024-01-06T04:05:48;7.15;;;1.88;;
72649;SDS011;61467;50.674;4.618;2024-01-06T04:08:15;5.03;;;1.23;;
72649;SDS011;61467;50.674;4.618;2024-01-06T04:10:42;5.63;;;1.63;;
72649;SDS011;61467;50.674;4.618;2024-01-06T04:13:10;5.47;;;1.43;;
72649;SDS011;61467;50.674;4.618;2024-01-06T04:15:37;6.65;;;1.80;;
72649;SDS011;61467;50.674;4.618;2024-01-06T04:18:04;7.40;;;1.73;;
72649;SDS011;61467;50.674;4.618;2024-01-06T04:20:32;4.93;;;1.38;;
72649;SDS011;61467;50.674;4.618;2024-01-06T04:23:00;6.85;;;1.55;;
72649;SDS011;61467;50.674;4.618;2024-01-06T04:25:27;4.80;;;1.57;;
72649;SDS011;61467;50.674;4.618;2024-01-06T04:27:54;4.65;;;1.30;;
72649;SDS011;61467;50.674;4.618;2024-01-06T04:30:21;5.88;;;2.00;;
72649;SDS011;61467;50.674;4.618;2024-01-06T04:32:49;4.97;;;1.60;;
72649;SDS011;61467;50.674;4.618;2024-01-06T04:35:16;7.03;;;1.63;;
72649;SDS011;61467;50.674;4.618;2024-01-06T04:37:43;6.63;;;1.80;;
72649;SDS011;61467;50.674;4.618;2024-01-06T04:40:12;6.90;;;2.30;;
72649;SDS011;61467;50.674;4.618;2024-01-06T04:42:39;6.07;;;2.33;;
72649;SDS011;61467;50.674;4.618;2024-01-06T04:45:06;5.90;;;2.47;;
72649;SDS011;61467;50.674;4.618;2024-01-06T04:47:33;6.75;;;2.50;;
72649;SDS011;61467;50.674;4.618;2024-01-06T04:50:00;6.80;;;2.47;;
72649;SDS011;61467;50.674;4.618;2024-01-06T04:52:27;7.18;;;2.50;;
72649;SDS011;61467;50.674;4.618;2024-01-06T04:54:55;7.93;;;3.38;;
72649;SDS011;61467;50.674;4.618;2024-01-06T04:57:23;8.90;;;3.70;;
72649;SDS011;61467;50.674;4.618;2024-01-06T04:59:50;10.60;;;4.53;;
72649;SDS011;61467;50.674;4.618;2024-01-06T05:02:16;12.40;;;4.50;;
72649;SDS011;61467;50.674;4.618;2024-01-06T05:04:43;11.38;;;4.80;;
72649;SDS011;61467;50.674;4.618;2024-01-06T05:07:10;12.18;;;5.20;;
72649;SDS011;61467;50.674;4.618;2024-01-06T05:09:37;10.68;;;5.15;;
72649;SDS011;61467;50.674;4.618;2024-01-06T05:12:04;10.73;;;5.03;;
72649;SDS011;61467;50.674;4.618;2024-01-06T05:14:32;13.73;;;4.87;;
72649;SDS011;61467;50.674;4.618;2024-01-06T05:16:59;12.82;;;4.93;;
72649;SDS011;61467;50.674;4.618;2024-01-06T05:19:26;14.65;;;5.78;;
72649;SDS011;61467;50.674;4.618;2024-01-06T05:21:53;13.45;;;5.82;;
72649;SDS011;61467;50.674;4.618;2024-01-06T05:24:20;13.05;;;5.43;;
72649;SDS011;61467;50.674;4.618;2024-01-06T05:26:47;13.53;;;5.60;;
72649;SDS011;61467;50.674;4.618;2024-01-06T05:29:14;11.23;;;4.72;;
72649;SDS011;61467;50.674;4.618;2024-01-06T05:31:42;10.88;;;4.70;;
72649;SDS011;61467;50.674;4.618;2024-01-06T05:34:11;12.20;;;5.00;;
72649;SDS011;61467;50.674;4.618;2024-01-06T05:36:38;10.40;;;4.70;;
72649;SDS011;61467;50.674;4.618;2024-01-06T05:39:04;11.50;;;4.73;;
72649;SDS011;61467;50.674;4.618;2024-01-06T05:41:36;10.93;;;4.45;;
72649;SDS011;61467;50.674;4.618;2024-01-06T05:44:04;11.82;;;4.63;;
72649;SDS011;61467;50.674;4.618;2024-01-06T05:46:32;8.93;;;3.90;;
72649;SDS011;61467;50.674;4.618;2024-01-06T05:49:01;9.35;;;3.92;;
72649;SDS011;61467;50.674;4.618;2024-01-06T05:51:27;11.17;;;4.50;;
72649;SDS011;61467;50.674;4.618;2024-01-06T05:53:54;9.82;;;4.50;;
72649;SDS011;61467;50.674;4.618;2024-01-06T05:56:21;12.07;;;4.15;;
72649;SDS011;61467;50.674;4.618;2024-01-06T05:58:50;9.32;;;3.92;;
72649;SDS011;61467;50.674;4.618;2024-01-06T06:01:17;12.63;;;4.95;;
72649;SDS011;61467;50.674;4.618;2024-01-06T06:03:44;14.87;;;3.90;;
72649;SDS011;61467;50.674;4.618;2024-01-06T06:06:12;8.98;;;4.07;;
72649;SDS011;61467;50.674;4.618;2024-01-06T06:08:39;9.05;;;3.90;;
72649;SDS011;61467;50.674;4.618;2024-01-06T06:11:06;10.02;;;3.90;;
72649;SDS011;61467;50.674;4.618;2024-01-06T06:13:36;10.35;;;3.83;;
72649;SDS011;61467;50.674;4.618;2024-01-06T06:16:03;9.30;;;3.80;;
72649;SDS011;61467;50.674;4.618;2024-01-06T06:18:30;8.98;;;3.50;;
72649;SDS011;61467;50.674;4.618;2024-01-06T06:20:58;8.43;;;3.50;;
72649;SDS011;61467;50.674;4.618;2024-01-06T06:23:25;9.30;;;4.10;;
72649;SDS011;61467;50.674;4.618;2024-01-06T06:25:52;10.68;;;3.47;;
72649;SDS011;61467;50.674;4.618;2024-01-06T06:28:19;8.17;;;3.00;;
72649;SDS011;61467;50.674;4.618;2024-01-06T06:30:45;8.32;;;3.42;;
72649;SDS011;61467;50.674;4.618;2024-01-06T06:33:12;10.98;;;3.85;;
72649;SDS011;61467;50.674;4.618;2024-01-06T06:35:39;9.93;;;3.92;;
72649;SDS011;61467;50.674;4.618;2024-01-06T06:38:06;9.05;;;3.60;;
72649;SDS011;61467;50.674;4.618;2024-01-06T06:40:34;13.83;;;4.33;;
72649;SDS011;61467;50.674;4.618;2024-01-06T06:43:02;8.25;;;3.33;;
72649;SDS011;61467;50.674;4.618;2024-01-06T06:45:29;10.57;;;4.40;;
72649;SDS011;61467;50.674;4.618;2024-01-06T06:47:55;8.80;;;3.95;;
72649;SDS011;61467;50.674;4.618;2024-01-06T06:50:23;8.80;;;3.75;;
72649;SDS011;61467;50.674;4.618;2024-01-06T06:52:50;8.53;;;3.53;;
72649;SDS011;61467;50.674;4.618;2024-01-06T06:55:17;8.93;;;3.03;;
72649;SDS011;61467;50.674;4.618;2024-01-06T06:57:46;9.02;;;3.10;;
72649;SDS011;61467;50.674;4.618;2024-01-06T07:00:13;9.07;;;3.42;;
72649;SDS011;61467;50.674;4.618;2024-01-06T07:02:41;7.72;;;2.90;;
72649;SDS011;61467;50.674;4.618;2024-01-06T07:05:08;10.10;;;3.03;;
72649;SDS011;61467;50.674;4.618;2024-01-06T07:07:35;8.32;;;2.95;;
72649;SDS011;61467;50.674;4.618;2024-01-06T07:10:03;8.43;;;2.92;;
72649;SDS011;61467;50.674;4.618;2024-01-06T07:12:30;8.85;;;3.05;;
72649;SDS011;61467;50.674;4.618;2024-01-06T07:14:58;8.02;;;3.70;;
72649;SDS011;61467;50.674;4.618;2024-01-06T07:17:25;8.37;;;3.70;;
72649;SDS011;61467;50.674;4.618;2024-01-06T07:19:52;9.13;;;4.05;;
72649;SDS011;61467;50.674;4.618;2024-01-06T07:22:20;9.85;;;3.92;;
72649;SDS011;61467;50.674;4.618;2024-01-06T07:24:47;8.93;;;4.10;;
72649;SDS011;61467;50.674;4.618;2024-01-06T07:27:14;9.90;;;3.90;;
72649;SDS011;61467;50.674;4.618;2024-01-06T07:29:40;10.77;;;4.70;;
72649;SDS011;61467;50.674;4.618;2024-01-06T07:32:09;8.80;;;3.70;;
72649;SDS011;61467;50.674;4.618;2024-01-06T07:34:35;9.23;;;4.00;;
72649;SDS011;61467;50.674;4.618;2024-01-06T07:37:02;8.77;;;3.67;;
72649;SDS011;61467;50.674;4.618;2024-01-06T07:39:29;10.63;;;3.85;;
72649;SDS011;61467;50.674;4.618;2024-01-06T07:41:56;9.53;;;3.23;;
72649;SDS011;61467;50.674;4.618;2024-01-06T07:44:23;8.25;;;3.05;;
72649;SDS011;61467;50.674;4.618;2024-01-06T07:46:50;8.30;;;2.47;;
72649;SDS011;61467;50.674;4.618;2024-01-06T07:49:19;6.60;;;2.33;;
72649;SDS011;61467;50.674;4.618;2024-01-06T07:51:46;6.57;;;2.63;;
72649;SDS011;61467;50.674;4.618;2024-01-06T07:54:12;6.57;;;2.80;;
72649;SDS011;61467;50.674;4.618;2024-01-06T07:56:39;7.60;;;2.38;;
72649;SDS011;61467;50.674;4.618;2024-01-06T07:59:08;8.27;;;3.30;;
72649;SDS011;61467;50.674;4.618;2024-01-06T08:01:36;6.97;;;2.75;;
72649;SDS011;61467;50.674;4.618;2024-01-06T08:04:03;6.70;;;2.72;;
72649;SDS011;61467;50.674;4.618;2024-01-06T08:06:31;7.10;;;3.00;;
72649;SDS011;61467;50.674;4.618;2024-01-06T08:08:58;8.52;;;3.85;;
72649;SDS011;61467;50.674;4.618;2024-01-06T08:11:25;9.18;;;3.42;;
72649;SDS011;61467;50.674;4.618;2024-01-06T08:13:52;9.30;;;3.83;;
72649;SDS011;61467;50.674;4.618;2024-01-06T08:16:19;8.43;;;3.50;;
72649;SDS011;61467;50.674;4.618;2024-01-06T08:18:46;9.20;;;3.50;;
72649;SDS011;61467;50.674;4.618;2024-01-06T08:21:13;8.95;;;3.75;;
72649;SDS011;61467;50.674;4.618;2024-01-06T08:23:41;7.95;;;3.45;;
72649;SDS011;61467;50.674;4.618;2024-01-06T08:26:08;9.68;;;3.30;;
72649;SDS011;61467;50.674;4.618;2024-01-06T08:28:34;8.63;;;3.17;;
72649;SDS011;61467;50.674;4.618;2024-01-06T08:31:02;8.70;;;4.00;;
72649;SDS011;61467;50.674;4.618;2024-01-06T08:33:29;9.02;;;3.80;;
72649;SDS011;61467;50.674;4.618;2024-01-06T08:35:56;9.65;;;3.95;;
72649;SDS011;61467;50.674;4.618;2024-01-06T08:38:23;8.52;;;3.90;;
72649;SDS011;61467;50.674;4.618;2024-01-06T08:40:51;7.82;;;3.63;;
72649;SDS011;61467;50.674;4.618;2024-01-06T08:43:18;9.07;;;3.50;;
72649;SDS011;61467;50.674;4.618;2024-01-06T08:45:45;7.88;;;3.33;;
72649;SDS011;61467;50.674;4.618;2024-01-06T08:48:13;8.27;;;3.25;;
72649;SDS011;61467;50.674;4.618;2024-01-06T08:50:40;12.15;;;3.83;;
72649;SDS011;61467;50.674;4.618;2024-01-06T08:53:08;9.48;;;3.75;;
72649;SDS011;61467;50.674;4.618;2024-01-06T08:55:35;9.40;;;4.20;;
72649;SDS011;61467;50.674;4.618;2024-01-06T08:58:03;10.07;;;3.88;;
72649;SDS011;61467;50.674;4.618;2024-01-06T09:00:31;12.05;;;4.28;;
72649;SDS011;61467;50.674;4.618;2024-01-06T09:02:58;9.73;;;3.97;;
72649;SDS011;61467;50.674;4.618;2024-01-06T09:05:25;9.85;;;4.15;;
72649;SDS011;61467;50.674;4.618;2024-01-06T09:07:52;9.80;;;3.90;;
72649;SDS011;61467;50.674;4.618;2024-01-06T09:10:19;9.52;;;4.05;;
72649;SDS011;61467;50.674;4.618;2024-01-06T09:12:46;9.20;;;4.28;;
72649;SDS011;61467;50.674;4.618;2024-01-06T09:15:14;10.90;;;4.68;;
72649;SDS011;61467;50.674;4.618;2024-01-06T09:17:42;11.93;;;4.93;;
72649;SDS011;61467;50.674;4.618;2024-01-06T09:20:09;10.87;;;4.30;;
72649;SDS011;61467;50.674;4.618;2024-01-06T09:22:41;12.82;;;4.72;;
72649;SDS011;61467;50.674;4.618;2024-01-06T09:25:07;11.75;;;5.07;;
72649;SDS011;61467;50.674;4.618;2024-01-06T09:27:34;12.05;;;4.40;;
72649;SDS011;61467;50.674;4.618;2024-01-06T09:30:02;11.77;;;5.13;;
72649;SDS011;61467;50.674;4.618;2024-01-06T09:32:31;12.40;;;4.60;;
72649;SDS011;61467;50.674;4.618;2024-01-06T09:34:58;11.18;;;4.47;;
72649;SDS011;61467;50.674;4.618;2024-01-06T09:37:24;10.05;;;4.75;;
72649;SDS011;61467;50.674;4.618;2024-01-06T09:39:52;10.68;;;4.80;;
72649;SDS011;61467;50.674;4.618;2024-01-06T09:42:19;11.02;;;4.95;;
72649;SDS011;61467;50.674;4.618;2024-01-06T09:44:46;11.43;;;4.60;;
72649;SDS011;61467;50.674;4.618;2024-01-06T09:47:12;12.38;;;4.25;;
72649;SDS011;61467;50.674;4.618;2024-01-06T09:49:42;14.35;;;4.93;;
72649;SDS011;61467;50.674;4.618;2024-01-06T09:52:14;9.40;;;3.85;;
72649;SDS011;61467;50.674;4.618;2024-01-06T09:54:42;9.32;;;3.38;;
72649;SDS011;61467;50.674;4.618;2024-01-06T09:57:17;10.40;;;3.93;;
72649;SDS011;61467;50.674;4.618;2024-01-06T09:59:44;11.23;;;4.45;;
72649;SDS011;61467;50.674;4.618;2024-01-06T10:02:12;9.63;;;4.40;;
72649;SDS011;61467;50.674;4.618;2024-01-06T10:04:43;9.68;;;3.88;;
72649;SDS011;61467;50.674;4.618;2024-01-06T10:07:12;10.07;;;4.50;;
72649;SDS011;61467;50.674;4.618;2024-01-06T10:09:40;8.53;;;3.80;;
72649;SDS011;61467;50.674;4.618;2024-01-06T10:12:07;11.75;;;3.63;;
72649;SDS011;61467;50.674;4.618;2024-01-06T10:14:36;8.55;;;3.83;;
72649;SDS011;61467;50.674;4.618;2024-01-06T10:17:05;9.35;;;3.35;;
72649;SDS011;61467;50.674;4.618;2024-01-06T10:19:34;8.52;;;3.35;;
72649;SDS011;61467;50.674;4.618;2024-01-06T10:22:03;9.70;;;3.83;;
72649;SDS011;61467;50.674;4.618;2024-01-06T10:24:30;8.23;;;3.80;;
72649;SDS011;61467;50.674;4.618;2024-01-06T10:26:57;9.05;;;4.03;;
72649;SDS011;61467;50.674;4.618;2024-01-06T10:29:25;8.35;;;3.47;;
72649;SDS011;61467;50.674;4.618;2024-01-06T10:31:53;9.98;;;4.13;;
72649;SDS011;61467;50.674;4.618;2024-01-06T10:34:20;9.50;;;3.30;;
72649;SDS011;61467;50.674;4.618;2024-01-06T10:36:48;9.82;;;3.55;;
72649;SDS011;61467;50.674;4.618;2024-01-06T10:39:18;10.20;;;3.58;;
72649;SDS011;61467;50.674;4.618;2024-01-06T10:41:45;8.27;;;3.45;;
72649;SDS011;61467;50.674;4.618;2024-01-06T10:44:14;8.57;;;3.63;;
72649;SDS011;61467;50.674;4.618;2024-01-06T10:46:41;7.90;;;3.10;;
72649;SDS011;61467;50.674;4.618;2024-01-06T10:49:10;10.82;;;3.65;;
72649;SDS011;61467;50.674;4.618;2024-01-06T10:51:38;9.65;;;3.67;;
72649;SDS011;61467;50.674;4.618;2024-01-06T10:54:05;8.00;;;3.33;;
72649;SDS011;61467;50.674;4.618;2024-01-06T10:56:36;8.60;;;3.17;;
72649;SDS011;61467;50.674;4.618;2024-01-06T10:59:04;8.63;;;3.67;;
72649;SDS011;61467;50.674;4.618;2024-01-06T11:01:33;8.88;;;3.03;;
72649;SDS011;61467;50.674;4.618;2024-01-06T11:04:00;8.43;;;3.03;;
72649;SDS011;61467;50.674;4.618;2024-01-06T11:06:29;10.35;;;2.90;;
72649;SDS011;61467;50.674;4.618;2024-01-06T11:09:01;8.07;;;3.20;;
72649;SDS011;61467;50.674;4.618;2024-01-06T11:11:32;8.47;;;3.07;;
72649;SDS011;61467;50.674;4.618;2024-01-06T11:14:22;9.35;;;3.50;;
72649;SDS011;61467;50.674;4.618;2024-01-06T11:16:51;10.40;;;3.70;;
72649;SDS011;61467;50.674;4.618;2024-01-06T11:22:26;7.68;;;3.20;;
72649;SDS011;61467;50.674;4.618;2024-01-06T11:24:57;8.43;;;3.03;;
72649;SDS011;61467;50.674;4.618;2024-01-06T11:27:30;9.02;;;3.50;;
72649;SDS011;61467;50.674;4.618;2024-01-06T11:29:59;8.15;;;3.40;;
72649;SDS011;61467;50.674;4.618;2024-01-06T11:32:32;8.27;;;3.25;;
72649;SDS011;61467;50.674;4.618;2024-01-06T11:35:06;9.00;;;3.72;;
72649;SDS011;61467;50.674;4.618;2024-01-06T11:37:37;7.47;;;3.03;;
72649;SDS011;61467;50.674;4.618;2024-01-06T11:40:22;9.95;;;3.25;;
72649;SDS011;61467;50.674;4.618;2024-01-06T11:42:56;9.52;;;3.35;;
72649;SDS011;61467;50.674;4.618;2024-01-06T11:45:26;10.30;;;4.20;;
72649;SDS011;61467;50.674;4.618;2024-01-06T11:47:54;8.63;;;3.13;;
72649;SDS011;61467;50.674;4.618;2024-01-06T11:50:23;7.77;;;2.80;;
72649;SDS011;61467;50.674;4.618;2024-01-06T11:52:52;8.82;;;3.30;;
72649;SDS011;61467;50.674;4.618;2024-01-06T11:55:19;9.23;;;3.55;;
72649;SDS011;61467;50.674;4.618;2024-01-06T11:57:47;8.98;;;3.30;;
72649;SDS011;61467;50.674;4.618;2024-01-06T12:00:15;8.27;;;3.90;;
72649;SDS011;61467;50.674;4.618;2024-01-06T12:02:44;7.93;;;2.93;;
72649;SDS011;61467;50.674;4.618;2024-01-06T12:05:14;8.18;;;3.17;;
72649;SDS011;61467;50.674;4.618;2024-01-06T12:07:41;9.27;;;4.03;;
72649;SDS011;61467;50.674;4.618;2024-01-06T12:10:09;8.60;;;3.30;;
72649;SDS011;61467;50.674;4.618;2024-01-06T12:12:36;9.35;;;4.18;;
72649;SDS011;61467;50.674;4.618;2024-01-06T12:15:04;8.03;;;3.27;;
72649;SDS011;61467;50.674;4.618;2024-01-06T12:17:33;9.05;;;3.88;;
72649;SDS011;61467;50.674;4.618;2024-01-06T12:20:02;11.23;;;4.25;;
72649;SDS011;61467;50.674;4.618;2024-01-06T12:22:30;9.05;;;3.72;;
72649;SDS011;61467;50.674;4.618;2024-01-06T12:24:58;9.15;;;3.85;;
72649;SDS011;61467;50.674;4.618;2024-01-06T12:27:29;9.27;;;3.57;;
72649;SDS011;61467;50.674;4.618;2024-01-06T12:29:59;8.70;;;3.50;;
72649;SDS011;61467;50.674;4.618;2024-01-06T12:32:28;10.57;;;3.88;;
72649;SDS011;61467;50.674;4.618;2024-01-06T12:34:54;11.50;;;4.22;;
72649;SDS011;61467;50.674;4.618;2024-01-06T12:37:23;9.43;;;3.83;;
72649;SDS011;61467;50.674;4.618;2024-01-06T12:39:50;10.20;;;3.90;;
72649;SDS011;61467;50.674;4.618;2024-01-06T12:42:17;11.27;;;4.03;;
72649;SDS011;61467;50.674;4.618;2024-01-06T12:44:45;9.93;;;4.30;;
72649;SDS011;61467;50.674;4.618;2024-01-06T12:47:12;8.02;;;3.33;;
72649;SDS011;61467;50.674;4.618;2024-01-06T12:49:38;9.43;;;3.88;;
72649;SDS011;61467;50.674;4.618;2024-01-06T12:52:05;11.57;;;3.57;;
72649;SDS011;61467;50.674;4.618;2024-01-06T12:54:33;13.25;;;4.35;;
72649;SDS011;61467;50.674;4.618;2024-01-06T12:57:02;10.13;;;4.20;;
72649;SDS011;61467;50.674;4.618;2024-01-06T12:59:29;9.25;;;3.70;;
72649;SDS011;61467;50.674;4.618;2024-01-06T13:01:57;8.90;;;3.35;;
72649;SDS011;61467;50.674;4.618;2024-01-06T13:04:24;10.97;;;4.30;;
72649;SDS011;61467;50.674;4.618;2024-01-06T13:06:51;11.07;;;3.97;;
72649;SDS011;61467;50.674;4.618;2024-01-06T13:09:17;9.60;;;4.00;;
72649;SDS011;61467;50.674;4.618;2024-01-06T13:11:46;8.60;;;3.78;;
72649;SDS011;61467;50.674;4.618;2024-01-06T13:14:13;10.70;;;4.43;;
72649;SDS011;61467;50.674;4.618;2024-01-06T13:16:39;9.83;;;3.77;;
72649;SDS011;61467;50.674;4.618;2024-01-06T13:19:06;11.73;;;3.92;;
72649;SDS011;61467;50.674;4.618;2024-01-06T13:21:33;9.50;;;3.75;;
72649;SDS011;61467;50.674;4.618;2024-01-06T13:24:00;8.60;;;4.00;;
72649;SDS011;61467;50.674;4.618;2024-01-06T13:26:29;9.77;;;4.53;;
72649;SDS011;61467;50.674;4.618;2024-01-06T13:28:58;9.53;;;3.77;;
72649;SDS011;61467;50.674;4.618;2024-01-06T13:31:26;12.05;;;4.68;;
72649;SDS011;61467;50.674;4.618;2024-01-06T13:33:54;10.13;;;4.18;;
72649;SDS011;61467;50.674;4.618;2024-01-06T13:36:21;9.63;;;3.92;;
72649;SDS011;61467;50.674;4.618;2024-01-06T13:38:50;9.93;;;3.92;;
72649;SDS011;61467;50.674;4.618;2024-01-06T13:41:17;10.50;;;3.83;;
72649;SDS011;61467;50.674;4.618;2024-01-06T13:43:44;8.57;;;3.38;;
72649;SDS011;61467;50.674;4.618;2024-01-06T13:46:12;10.00;;;4.45;;
72649;SDS011;61467;50.674;4.618;2024-01-06T13:48:39;8.15;;;3.63;;
72649;SDS011;61467;50.674;4.618;2024-01-06T13:51:06;9.40;;;3.88;;
72649;SDS011;61467;50.674;4.618;2024-01-06T13:53:34;9.30;;;3.67;;
72649;SDS011;61467;50.674;4.618;2024-01-06T13:56:00;8.43;;;3.70;;
72649;SDS011;61467;50.674;4.618;2024-01-06T13:58:28;10.27;;;4.60;;
72649;SDS011;61467;50.674;4.618;2024-01-06T14:00:55;9.02;;;4.38;;
72649;SDS011;61467;50.674;4.618;2024-01-06T14:03:23;9.32;;;4.15;;
72649;SDS011;61467;50.674;4.618;2024-01-06T14:05:50;10.03;;;5.00;;
72649;SDS011;61467;50.674;4.618;2024-01-06T14:08:18;9.23;;;4.35;;
72649;SDS011;61467;50.674;4.618;2024-01-06T14:10:45;10.25;;;4.30;;
72649;SDS011;61467;50.674;4.618;2024-01-06T14:13:12;9.57;;;4.15;;
72649;SDS011;61467;50.674;4.618;2024-01-06T14:15:38;10.82;;;4.22;;
72649;SDS011;61467;50.674;4.618;2024-01-06T14:18:05;8.07;;;3.60;;
72649;SDS011;61467;50.674;4.618;2024-01-06T14:20:37;11.50;;;4.38;;
72649;SDS011;61467;50.674;4.618;2024-01-06T14:23:05;8.80;;;4.30;;
72649;SDS011;61467;50.674;4.618;2024-01-06T14:25:32;9.10;;;3.78;;
72649;SDS011;61467;50.674;4.618;2024-01-06T14:27:59;9.93;;;3.80;;
72649;SDS011;61467;50.674;4.618;2024-01-06T14:30:26;10.67;;;4.67;;
72649;SDS011;61467;50.674;4.618;2024-01-06T14:32:54;10.18;;;4.35;;
72649;SDS011;61467;50.674;4.618;2024-01-06T14:35:21;8.35;;;3.65;;
72649;SDS011;61467;50.674;4.618;2024-01-06T14:37:49;9.95;;;4.47;;
72649;SDS011;61467;50.674;4.618;2024-01-06T14:40:18;8.95;;;3.90;;
72649;SDS011;61467;50.674;4.618;2024-01-06T14:42:45;8.73;;;3.60;;
72649;SDS011;61467;50.674;4.618;2024-01-06T14:45:11;9.95;;;3.80;;
72649;SDS011;61467;50.674;4.618;2024-01-06T14:47:39;8.13;;;3.72;;
72649;SDS011;61467;50.674;4.618;2024-01-06T14:50:07;8.80;;;3.20;;